sensor_id;sensor_type;location;lat;lon;timestamp;temperature;humidity
38568;DHT22;24338;48.280;10.970;2023-02-14T00:00:47;0.30;99.90
38568;DHT22;24338;48.280;10.970;2023-02-14T00:03:14;0.30;99.90
38568;DHT22;24338;48.280;10.970;2023-02-14T00:05:41;0.30;99.90
38568;DHT22;24338;48.280;10.970;2023-02-14T00:08:08;0.30;99.90
38568;DHT22;24338;48.280;10.970;2023-02-14T00:10:35;0.30;99.90
38568;DHT22;24338;48.280;10.970;2023-02-14T00:13:02;0.20;99.90
38568;DHT22;24338;48.280;10.970;2023-02-14T00:15:29;0.10;99.90
38568;DHT22;24338;48.280;10.970;2023-02-14T00:17:56;0.10;99.90
38568;DHT22;24338;48.280;10.970;2023-02-14T00:20:27;0.10;99.90
38568;DHT22;24338;48.280;10.970;2023-02-14T00:22:54;0.10;99.90
38568;DHT22;24338;48.280;10.970;2023-02-14T00:25:21;0.10;99.90
38568;DHT22;24338;48.280;10.970;2023-02-14T00:27:47;0.10;99.90
38568;DHT22;24338;48.280;10.970;2023-02-14T00:30:14;0.10;99.90
38568;DHT22;24338;48.280;10.970;2023-02-14T00:32:41;0.10;99.90
38568;DHT22;24338;48.280;10.970;2023-02-14T00:35:09;0.20;99.90
38568;DHT22;24338;48.280;10.970;2023-02-14T00:37:36;0.20;99.90
38568;DHT22;24338;48.280;10.970;2023-02-14T00:40:05;0.20;99.90
38568;DHT22;24338;48.280;10.970;2023-02-14T00:42:32;0.10;99.90
38568;DHT22;24338;48.280;10.970;2023-02-14T00:44:59;0.10;99.90
38568;DHT22;24338;48.280;10.970;2023-02-14T00:47:26;0.10;99.90
38568;DHT22;24338;48.280;10.970;2023-02-14T00:49:53;0.10;99.90
38568;DHT22;24338;48.280;10.970;2023-02-14T00:52:20;0.10;99.90
38568;DHT22;24338;48.280;10.970;2023-02-14T00:54:47;0.10;99.90
38568;DHT22;24338;48.280;10.970;2023-02-14T00:57:14;0.10;99.90
38568;DHT22;24338;48.280;10.970;2023-02-14T00:59:40;0.10;99.90
38568;DHT22;24338;48.280;10.970;2023-02-14T01:02:07;0.00;99.90
38568;DHT22;24338;48.280;10.970;2023-02-14T01:04:34;0.10;99.90
38568;DHT22;24338;48.280;10.970;2023-02-14T01:07:01;0.10;99.90
38568;DHT22;24338;48.280;10.970;2023-02-14T01:09:27;0.10;99.90
38568;DHT22;24338;48.280;10.970;2023-02-14T01:11:54;0.10;99.90
38568;DHT22;24338;48.280;10.970;2023-02-14T01:14:21;0.10;99.90
38568;DHT22;24338;48.280;10.970;2023-02-14T01:16:48;0.10;99.90
38568;DHT22;24338;48.280;10.970;2023-02-14T01:19:15;0.10;99.90
38568;DHT22;24338;48.280;10.970;2023-02-14T01:21:42;0.10;99.90
38568;DHT22;24338;48.280;10.970;2023-02-14T01:24:09;0.10;99.90
38568;DHT22;24338;48.280;10.970;2023-02-14T01:26:37;0.00;99.90
38568;DHT22;24338;48.280;10.970;2023-02-14T01:29:05;0.00;99.90
38568;DHT22;24338;48.280;10.970;2023-02-14T01:31:33;0.00;99.90
38568;DHT22;24338;48.280;10.970;2023-02-14T01:34:01;0.00;99.90
38568;DHT22;24338;48.280;10.970;2023-02-14T01:36:39;0.00;99.90
38568;DHT22;24338;48.280;10.970;2023-02-14T01:39:10;0.00;99.90
38568;DHT22;24338;48.280;10.970;2023-02-14T01:41:39;0.00;99.90
38568;DHT22;24338;48.280;10.970;2023-02-14T01:46:41;0.00;99.90
38568;DHT22;24338;48.280;10.970;2023-02-14T01:49:19;0.00;99.90
38568;DHT22;24338;48.280;10.970;2023-02-14T01:51:51;-0.10;99.90
38568;DHT22;24338;48.280;10.970;2023-02-14T01:54:20;0.00;99.90
38568;DHT22;24338;48.280;10.970;2023-02-14T01:56:53;0.00;99.90
38568;DHT22;24338;48.280;10.970;2023-02-14T01:59:24;0.00;99.90
38568;DHT22;24338;48.280;10.970;2023-02-14T02:01:52;0.00;99.90
38568;DHT22;24338;48.280;10.970;2023-02-14T02:04:25;-0.10;99.90
38568;DHT22;24338;48.280;10.970;2023-02-14T02:07:02;0.00;99.90
38568;DHT22;24338;48.280;10.970;2023-02-14T02:09:38;0.00;99.90
38568;DHT22;24338;48.280;10.970;2023-02-14T02:12:08;0.00;99.90
38568;DHT22;24338;48.280;10.970;2023-02-14T02:14:35;0.00;99.90
38568;DHT22;24338;48.280;10.970;2023-02-14T02:30:44;-0.10;99.90
38568;DHT22;24338;48.280;10.970;2023-02-14T02:36:44;-0.20;99.90
38568;DHT22;24338;48.280;10.970;2023-02-14T02:47:43;-0.20;99.90
38568;DHT22;24338;48.280;10.970;2023-02-14T02:50:24;-0.20;99.90
38568;DHT22;24338;48.280;10.970;2023-02-14T02:56:08;-0.20;99.90
38568;DHT22;24338;48.280;10.970;2023-02-14T02:58:57;-0.20;99.90
38568;DHT22;24338;48.280;10.970;2023-02-14T03:01:32;-0.20;99.90
38568;DHT22;24338;48.280;10.970;2023-02-14T03:04:05;-0.30;99.90
38568;DHT22;24338;48.280;10.970;2023-02-14T03:06:52;-0.20;99.90
38568;DHT22;24338;48.280;10.970;2023-02-14T03:11:54;-0.20;99.90
38568;DHT22;24338;48.280;10.970;2023-02-14T03:14:34;-0.30;99.90
38568;DHT22;24338;48.280;10.970;2023-02-14T03:17:14;-0.30;99.90
38568;DHT22;24338;48.280;10.970;2023-02-14T03:30:49;-0.20;99.90
38568;DHT22;24338;48.280;10.970;2023-02-14T03:34:00;-0.20;99.90
38568;DHT22;24338;48.280;10.970;2023-02-14T03:36:22;-0.30;99.90
38568;DHT22;24338;48.280;10.970;2023-02-14T03:39:31;-0.40;99.90
38568;DHT22;24338;48.280;10.970;2023-02-14T03:42:06;-0.40;99.90
38568;DHT22;24338;48.280;10.970;2023-02-14T03:44:37;-0.40;99.90
38568;DHT22;24338;48.280;10.970;2023-02-14T03:47:12;-0.30;99.90
38568;DHT22;24338;48.280;10.970;2023-02-14T03:49:45;-0.30;99.90
38568;DHT22;24338;48.280;10.970;2023-02-14T03:52:13;-0.30;99.90
38568;DHT22;24338;48.280;10.970;2023-02-14T03:54:41;-0.30;99.90
38568;DHT22;24338;48.280;10.970;2023-02-14T03:57:20;-0.30;99.90
38568;DHT22;24338;48.280;10.970;2023-02-14T03:59:49;-0.30;99.90
38568;DHT22;24338;48.280;10.970;2023-02-14T04:02:45;-0.30;99.90
38568;DHT22;24338;48.280;10.970;2023-02-14T04:05:16;-0.40;99.90
38568;DHT22;24338;48.280;10.970;2023-02-14T04:07:50;-0.30;99.90
38568;DHT22;24338;48.280;10.970;2023-02-14T04:10:18;-0.30;99.90
38568;DHT22;24338;48.280;10.970;2023-02-14T04:12:45;-0.30;99.90
38568;DHT22;24338;48.280;10.970;2023-02-14T04:15:13;-0.30;99.90
38568;DHT22;24338;48.280;10.970;2023-02-14T04:17:40;-0.30;99.90
38568;DHT22;24338;48.280;10.970;2023-02-14T04:20:26;-0.30;99.90
38568;DHT22;24338;48.280;10.970;2023-02-14T04:22:54;-0.30;99.90
38568;DHT22;24338;48.280;10.970;2023-02-14T04:25:21;-0.30;99.90
38568;DHT22;24338;48.280;10.970;2023-02-14T04:27:48;-0.20;99.90
38568;DHT22;24338;48.280;10.970;2023-02-14T04:30:15;-0.20;99.90
38568;DHT22;24338;48.280;10.970;2023-02-14T04:32:44;-0.30;99.90
38568;DHT22;24338;48.280;10.970;2023-02-14T04:35:10;-0.30;99.90
38568;DHT22;24338;48.280;10.970;2023-02-14T04:37:37;-0.30;99.90
38568;DHT22;24338;48.280;10.970;2023-02-14T04:40:05;-0.40;99.90
38568;DHT22;24338;48.280;10.970;2023-02-14T04:42:32;-0.40;99.90
38568;DHT22;24338;48.280;10.970;2023-02-14T04:45:00;-0.40;99.90
38568;DHT22;24338;48.280;10.970;2023-02-14T04:47:29;-0.40;99.90
38568;DHT22;24338;48.280;10.970;2023-02-14T04:49:56;-0.40;99.90
38568;DHT22;24338;48.280;10.970;2023-02-14T04:52:23;-0.40;99.90
38568;DHT22;24338;48.280;10.970;2023-02-14T04:54:50;-0.40;99.90
38568;DHT22;24338;48.280;10.970;2023-02-14T04:57:17;-0.40;99.90
38568;DHT22;24338;48.280;10.970;2023-02-14T04:59:44;-0.40;99.90
38568;DHT22;24338;48.280;10.970;2023-02-14T05:02:10;-0.40;99.90
38568;DHT22;24338;48.280;10.970;2023-02-14T05:04:37;-0.40;99.90
38568;DHT22;24338;48.280;10.970;2023-02-14T05:07:04;-0.40;99.90
38568;DHT22;24338;48.280;10.970;2023-02-14T05:09:31;-0.40;99.90
38568;DHT22;24338;48.280;10.970;2023-02-14T05:11:58;-0.40;99.90
38568;DHT22;24338;48.280;10.970;2023-02-14T05:14:25;-0.40;99.90
38568;DHT22;24338;48.280;10.970;2023-02-14T05:16:52;-0.40;99.90
38568;DHT22;24338;48.280;10.970;2023-02-14T05:19:18;-0.40;99.90
38568;DHT22;24338;48.280;10.970;2023-02-14T05:21:45;-0.40;99.90
38568;DHT22;24338;48.280;10.970;2023-02-14T05:24:12;-0.40;99.90
38568;DHT22;24338;48.280;10.970;2023-02-14T05:26:39;-0.40;99.90
38568;DHT22;24338;48.280;10.970;2023-02-14T05:29:06;-0.50;99.90
38568;DHT22;24338;48.280;10.970;2023-02-14T05:31:33;-0.50;99.90
38568;DHT22;24338;48.280;10.970;2023-02-14T05:34:00;-0.50;99.90
38568;DHT22;24338;48.280;10.970;2023-02-14T05:36:27;-0.50;99.90
38568;DHT22;24338;48.280;10.970;2023-02-14T05:38:54;-0.50;99.90
38568;DHT22;24338;48.280;10.970;2023-02-14T05:41:21;-0.50;99.90
38568;DHT22;24338;48.280;10.970;2023-02-14T05:43:48;-0.50;99.90
38568;DHT22;24338;48.280;10.970;2023-02-14T05:46:14;-0.60;99.90
38568;DHT22;24338;48.280;10.970;2023-02-14T05:48:41;-0.60;99.90
38568;DHT22;24338;48.280;10.970;2023-02-14T05:51:09;-0.50;99.90
38568;DHT22;24338;48.280;10.970;2023-02-14T05:53:36;-0.50;99.90
38568;DHT22;24338;48.280;10.970;2023-02-14T05:56:03;-0.50;99.90
38568;DHT22;24338;48.280;10.970;2023-02-14T05:58:31;-0.50;99.90
38568;DHT22;24338;48.280;10.970;2023-02-14T06:00:59;-0.60;99.90
38568;DHT22;24338;48.280;10.970;2023-02-14T06:03:26;-0.60;99.90
38568;DHT22;24338;48.280;10.970;2023-02-14T06:05:53;-0.60;99.90
38568;DHT22;24338;48.280;10.970;2023-02-14T06:08:20;-0.60;99.90
38568;DHT22;24338;48.280;10.970;2023-02-14T06:10:46;-0.60;99.90
38568;DHT22;24338;48.280;10.970;2023-02-14T06:13:13;-0.60;99.90
38568;DHT22;24338;48.280;10.970;2023-02-14T06:15:40;-0.60;99.90
38568;DHT22;24338;48.280;10.970;2023-02-14T06:18:07;-0.60;99.90
38568;DHT22;24338;48.280;10.970;2023-02-14T06:20:34;-0.60;99.90
38568;DHT22;24338;48.280;10.970;2023-02-14T06:23:01;-0.50;99.90
38568;DHT22;24338;48.280;10.970;2023-02-14T06:25:28;-0.50;99.90
38568;DHT22;24338;48.280;10.970;2023-02-14T06:27:56;-0.50;99.90
38568;DHT22;24338;48.280;10.970;2023-02-14T06:30:24;-0.50;99.90
38568;DHT22;24338;48.280;10.970;2023-02-14T06:32:51;-0.50;99.90
38568;DHT22;24338;48.280;10.970;2023-02-14T06:35:21;-0.60;99.90
38568;DHT22;24338;48.280;10.970;2023-02-14T06:37:48;-0.60;99.90
38568;DHT22;24338;48.280;10.970;2023-02-14T06:40:15;-0.60;99.90
38568;DHT22;24338;48.280;10.970;2023-02-14T06:42:42;-0.60;99.90
38568;DHT22;24338;48.280;10.970;2023-02-14T06:45:09;-0.70;99.90
38568;DHT22;24338;48.280;10.970;2023-02-14T06:47:36;-0.70;99.90
38568;DHT22;24338;48.280;10.970;2023-02-14T06:50:03;-0.60;99.90
38568;DHT22;24338;48.280;10.970;2023-02-14T06:52:32;-0.70;99.90
38568;DHT22;24338;48.280;10.970;2023-02-14T06:54:58;-0.60;99.90
38568;DHT22;24338;48.280;10.970;2023-02-14T06:57:25;-0.60;99.90
38568;DHT22;24338;48.280;10.970;2023-02-14T06:59:52;-0.70;99.90
38568;DHT22;24338;48.280;10.970;2023-02-14T07:02:19;-0.70;99.90
38568;DHT22;24338;48.280;10.970;2023-02-14T07:04:49;-0.70;99.90
38568;DHT22;24338;48.280;10.970;2023-02-14T07:07:16;-0.70;99.90
38568;DHT22;24338;48.280;10.970;2023-02-14T07:09:43;-0.70;99.90
38568;DHT22;24338;48.280;10.970;2023-02-14T07:12:10;-0.80;99.90
38568;DHT22;24338;48.280;10.970;2023-02-14T07:14:37;-0.80;99.90
38568;DHT22;24338;48.280;10.970;2023-02-14T07:17:03;-0.80;99.90
38568;DHT22;24338;48.280;10.970;2023-02-14T07:19:30;-0.80;99.90
38568;DHT22;24338;48.280;10.970;2023-02-14T07:21:57;-0.80;99.90
38568;DHT22;24338;48.280;10.970;2023-02-14T07:24:24;-0.80;99.90
38568;DHT22;24338;48.280;10.970;2023-02-14T07:26:51;-0.80;99.90
38568;DHT22;24338;48.280;10.970;2023-02-14T07:29:17;-0.80;99.90
38568;DHT22;24338;48.280;10.970;2023-02-14T07:31:44;-0.80;99.90
38568;DHT22;24338;48.280;10.970;2023-02-14T07:34:11;-0.80;99.90
38568;DHT22;24338;48.280;10.970;2023-02-14T07:36:38;-0.70;99.90
38568;DHT22;24338;48.280;10.970;2023-02-14T07:39:05;-0.80;99.90
38568;DHT22;24338;48.280;10.970;2023-02-14T07:41:32;-0.80;99.90
38568;DHT22;24338;48.280;10.970;2023-02-14T07:43:58;-0.80;99.90
38568;DHT22;24338;48.280;10.970;2023-02-14T07:46:25;-0.80;99.90
38568;DHT22;24338;48.280;10.970;2023-02-14T07:48:52;-0.80;99.90
38568;DHT22;24338;48.280;10.970;2023-02-14T07:51:19;-0.90;99.90
38568;DHT22;24338;48.280;10.970;2023-02-14T07:53:46;-0.90;99.90
38568;DHT22;24338;48.280;10.970;2023-02-14T07:56:13;-0.80;99.90
38568;DHT22;24338;48.280;10.970;2023-02-14T07:58:40;-0.80;99.90
38568;DHT22;24338;48.280;10.970;2023-02-14T08:01:07;-0.80;99.90
38568;DHT22;24338;48.280;10.970;2023-02-14T08:03:34;-0.90;99.90
38568;DHT22;24338;48.280;10.970;2023-02-14T08:06:01;-0.90;99.90
38568;DHT22;24338;48.280;10.970;2023-02-14T08:08:29;-0.80;99.90
38568;DHT22;24338;48.280;10.970;2023-02-14T08:10:57;-0.80;99.90
38568;DHT22;24338;48.280;10.970;2023-02-14T08:13:25;-0.80;99.90
38568;DHT22;24338;48.280;10.970;2023-02-14T08:15:52;-0.80;99.90
38568;DHT22;24338;48.280;10.970;2023-02-14T08:18:34;-0.70;99.90
38568;DHT22;24338;48.280;10.970;2023-02-14T08:21:02;-0.70;99.90
38568;DHT22;24338;48.280;10.970;2023-02-14T08:23:29;-0.80;99.90
38568;DHT22;24338;48.280;10.970;2023-02-14T08:25:56;-0.70;99.90
38568;DHT22;24338;48.280;10.970;2023-02-14T08:28:24;-0.70;99.90
38568;DHT22;24338;48.280;10.970;2023-02-14T08:30:51;-0.70;99.90
38568;DHT22;24338;48.280;10.970;2023-02-14T08:33:19;-0.60;99.90
38568;DHT22;24338;48.280;10.970;2023-02-14T08:35:46;-0.60;99.90
38568;DHT22;24338;48.280;10.970;2023-02-14T08:38:13;-0.60;99.90
38568;DHT22;24338;48.280;10.970;2023-02-14T08:40:40;-0.60;99.90
38568;DHT22;24338;48.280;10.970;2023-02-14T08:43:07;-0.70;99.90
38568;DHT22;24338;48.280;10.970;2023-02-14T08:45:34;-0.70;99.90
38568;DHT22;24338;48.280;10.970;2023-02-14T08:48:04;-0.80;99.90
38568;DHT22;24338;48.280;10.970;2023-02-14T08:50:31;-0.80;99.90
38568;DHT22;24338;48.280;10.970;2023-02-14T08:52:58;-0.70;99.90
38568;DHT22;24338;48.280;10.970;2023-02-14T08:55:25;-0.60;99.90
38568;DHT22;24338;48.280;10.970;2023-02-14T08:57:56;-0.50;99.90
38568;DHT22;24338;48.280;10.970;2023-02-14T09:00:23;-0.50;99.90
38568;DHT22;24338;48.280;10.970;2023-02-14T09:02:51;-0.40;99.90
38568;DHT22;24338;48.280;10.970;2023-02-14T09:05:19;-0.40;99.90
38568;DHT22;24338;48.280;10.970;2023-02-14T09:07:46;-0.30;99.90
38568;DHT22;24338;48.280;10.970;2023-02-14T09:10:13;-0.20;99.90
38568;DHT22;24338;48.280;10.970;2023-02-14T09:12:40;-0.20;99.90
38568;DHT22;24338;48.280;10.970;2023-02-14T09:15:09;-0.10;99.90
38568;DHT22;24338;48.280;10.970;2023-02-14T09:17:36;-0.10;99.90
38568;DHT22;24338;48.280;10.970;2023-02-14T09:20:05;-0.20;99.90
38568;DHT22;24338;48.280;10.970;2023-02-14T09:22:33;-0.20;99.90
38568;DHT22;24338;48.280;10.970;2023-02-14T09:25:00;-0.10;99.90
38568;DHT22;24338;48.280;10.970;2023-02-14T09:27:27;-0.10;99.90
38568;DHT22;24338;48.280;10.970;2023-02-14T09:29:54;0.00;99.90
38568;DHT22;24338;48.280;10.970;2023-02-14T09:32:20;0.10;99.90
38568;DHT22;24338;48.280;10.970;2023-02-14T09:34:47;0.00;99.90
38568;DHT22;24338;48.280;10.970;2023-02-14T09:40:07;0.00;99.90
38568;DHT22;24338;48.280;10.970;2023-02-14T09:45:39;-0.10;99.90
38568;DHT22;24338;48.280;10.970;2023-02-14T09:48:30;0.00;99.90
38568;DHT22;24338;48.280;10.970;2023-02-14T09:51:14;0.10;99.90
38568;DHT22;24338;48.280;10.970;2023-02-14T09:53:49;0.10;99.90
38568;DHT22;24338;48.280;10.970;2023-02-14T09:59:33;0.10;99.90
38568;DHT22;24338;48.280;10.970;2023-02-14T10:05:09;0.20;99.90
38568;DHT22;24338;48.280;10.970;2023-02-14T10:10:39;0.30;99.90
38568;DHT22;24338;48.280;10.970;2023-02-14T10:13:29;0.50;99.90
38568;DHT22;24338;48.280;10.970;2023-02-14T10:16:02;0.70;99.90
38568;DHT22;24338;48.280;10.970;2023-02-14T10:18:48;0.80;99.90
38568;DHT22;24338;48.280;10.970;2023-02-14T10:21:33;1.00;99.90
38568;DHT22;24338;48.280;10.970;2023-02-14T10:24:13;1.00;99.90
38568;DHT22;24338;48.280;10.970;2023-02-14T10:26:41;1.20;99.90
38568;DHT22;24338;48.280;10.970;2023-02-14T10:29:12;1.10;99.90
38568;DHT22;24338;48.280;10.970;2023-02-14T10:32:02;1.20;99.90
38568;DHT22;24338;48.280;10.970;2023-02-14T10:37:49;1.10;99.90
38568;DHT22;24338;48.280;10.970;2023-02-14T10:43:18;1.20;99.90
38568;DHT22;24338;48.280;10.970;2023-02-14T10:51:08;0.90;99.90
38568;DHT22;24338;48.280;10.970;2023-02-14T10:56:50;1.30;99.90
38568;DHT22;24338;48.280;10.970;2023-02-14T10:59:26;1.30;99.90
38568;DHT22;24338;48.280;10.970;2023-02-14T11:01:55;1.30;99.90
38568;DHT22;24338;48.280;10.970;2023-02-14T11:04:24;1.40;99.90
38568;DHT22;24338;48.280;10.970;2023-02-14T11:06:51;1.60;99.90
38568;DHT22;24338;48.280;10.970;2023-02-14T11:09:19;1.60;99.90
38568;DHT22;24338;48.280;10.970;2023-02-14T11:11:54;1.60;99.90
38568;DHT22;24338;48.280;10.970;2023-02-14T11:14:31;1.60;99.90
38568;DHT22;24338;48.280;10.970;2023-02-14T11:16:59;1.50;99.90
38568;DHT22;24338;48.280;10.970;2023-02-14T11:19:32;1.70;99.90
38568;DHT22;24338;48.280;10.970;2023-02-14T11:22:04;1.90;99.90
38568;DHT22;24338;48.280;10.970;2023-02-14T11:24:35;2.00;99.90
38568;DHT22;24338;48.280;10.970;2023-02-14T11:32:07;2.20;99.90
38568;DHT22;24338;48.280;10.970;2023-02-14T11:34:40;2.30;99.90
38568;DHT22;24338;48.280;10.970;2023-02-14T11:39:53;2.30;99.90
38568;DHT22;24338;48.280;10.970;2023-02-14T11:42:39;2.20;99.90
38568;DHT22;24338;48.280;10.970;2023-02-14T11:45:53;2.00;99.90
38568;DHT22;24338;48.280;10.970;2023-02-14T11:50:36;2.30;99.90
38568;DHT22;24338;48.280;10.970;2023-02-14T11:53:04;2.40;99.90
38568;DHT22;24338;48.280;10.970;2023-02-14T11:55:36;2.40;99.90
38568;DHT22;24338;48.280;10.970;2023-02-14T11:58:05;2.50;99.90
38568;DHT22;24338;48.280;10.970;2023-02-14T12:00:33;2.40;99.90
38568;DHT22;24338;48.280;10.970;2023-02-14T12:03:05;2.30;99.90
38568;DHT22;24338;48.280;10.970;2023-02-14T12:05:50;2.50;99.90
38568;DHT22;24338;48.280;10.970;2023-02-14T12:08:24;2.60;99.90
38568;DHT22;24338;48.280;10.970;2023-02-14T12:11:21;2.60;99.90
38568;DHT22;24338;48.280;10.970;2023-02-14T12:13:55;2.70;99.90
38568;DHT22;24338;48.280;10.970;2023-02-14T12:19:19;2.70;99.90
38568;DHT22;24338;48.280;10.970;2023-02-14T12:21:57;2.80;99.90
38568;DHT22;24338;48.280;10.970;2023-02-14T12:27:18;3.00;99.90
38568;DHT22;24338;48.280;10.970;2023-02-14T12:32:31;3.00;99.90
38568;DHT22;24338;48.280;10.970;2023-02-14T12:37:59;2.70;99.90
38568;DHT22;24338;48.280;10.970;2023-02-14T12:45:58;2.80;99.90
38568;DHT22;24338;48.280;10.970;2023-02-14T12:51:23;3.10;99.90
38568;DHT22;24338;48.280;10.970;2023-02-14T12:54:05;3.10;99.90
38568;DHT22;24338;48.280;10.970;2023-02-14T12:56:56;3.10;99.90
38568;DHT22;24338;48.280;10.970;2023-02-14T12:59:42;3.20;99.90
38568;DHT22;24338;48.280;10.970;2023-02-14T13:05:57;3.10;99.90
38568;DHT22;24338;48.280;10.970;2023-02-14T13:11:07;2.90;99.90
38568;DHT22;24338;48.280;10.970;2023-02-14T13:16:59;3.10;99.90
38568;DHT22;24338;48.280;10.970;2023-02-14T13:19:45;3.20;99.90
38568;DHT22;24338;48.280;10.970;2023-02-14T13:22:18;3.20;99.90
38568;DHT22;24338;48.280;10.970;2023-02-14T13:24:48;3.30;99.90
38568;DHT22;24338;48.280;10.970;2023-02-14T13:27:26;3.20;99.90
38568;DHT22;24338;48.280;10.970;2023-02-14T13:30:00;3.20;99.90
38568;DHT22;24338;48.280;10.970;2023-02-14T13:32:37;3.20;99.90
38568;DHT22;24338;48.280;10.970;2023-02-14T13:35:05;3.30;99.90
38568;DHT22;24338;48.280;10.970;2023-02-14T13:37:34;3.30;99.90
38568;DHT22;24338;48.280;10.970;2023-02-14T13:40:07;3.30;99.90
38568;DHT22;24338;48.280;10.970;2023-02-14T13:48:19;3.20;99.90
38568;DHT22;24338;48.280;10.970;2023-02-14T13:51:04;3.30;99.90
38568;DHT22;24338;48.280;10.970;2023-02-14T13:53:42;3.40;99.90
38568;DHT22;24338;48.280;10.970;2023-02-14T13:58:49;3.40;99.90
38568;DHT22;24338;48.280;10.970;2023-02-14T14:03:57;3.30;99.90
38568;DHT22;24338;48.280;10.970;2023-02-14T14:06:24;3.20;99.90
38568;DHT22;24338;48.280;10.970;2023-02-14T14:08:53;3.20;99.90
38568;DHT22;24338;48.280;10.970;2023-02-14T14:14:01;3.20;99.90
38568;DHT22;24338;48.280;10.970;2023-02-14T14:16:31;3.20;99.90
38568;DHT22;24338;48.280;10.970;2023-02-14T14:21:42;3.20;99.90
38568;DHT22;24338;48.280;10.970;2023-02-14T14:24:28;3.10;99.90
38568;DHT22;24338;48.280;10.970;2023-02-14T14:27:14;3.20;99.90
38568;DHT22;24338;48.280;10.970;2023-02-14T14:32:32;3.20;99.90
38568;DHT22;24338;48.280;10.970;2023-02-14T14:35:01;3.10;99.90
38568;DHT22;24338;48.280;10.970;2023-02-14T14:37:34;3.00;99.90
38568;DHT22;24338;48.280;10.970;2023-02-14T14:40:04;3.00;99.90
38568;DHT22;24338;48.280;10.970;2023-02-14T14:42:36;3.00;99.90
38568;DHT22;24338;48.280;10.970;2023-02-14T14:45:07;3.00;99.90
38568;DHT22;24338;48.280;10.970;2023-02-14T14:47:43;3.00;99.90
38568;DHT22;24338;48.280;10.970;2023-02-14T14:53:00;3.10;99.90
38568;DHT22;24338;48.280;10.970;2023-02-14T14:55:32;3.20;99.90
38568;DHT22;24338;48.280;10.970;2023-02-14T14:58:04;3.10;99.90
38568;DHT22;24338;48.280;10.970;2023-02-14T15:00:38;3.20;99.90
38568;DHT22;24338;48.280;10.970;2023-02-14T15:05:41;3.00;99.90
38568;DHT22;24338;48.280;10.970;2023-02-14T15:13:45;2.90;99.90
38568;DHT22;24338;48.280;10.970;2023-02-14T15:19:09;2.70;99.90
38568;DHT22;24338;48.280;10.970;2023-02-14T15:21:39;2.60;99.90
38568;DHT22;24338;48.280;10.970;2023-02-14T15:24:12;2.60;99.90
38568;DHT22;24338;48.280;10.970;2023-02-14T15:26:42;2.60;99.90
38568;DHT22;24338;48.280;10.970;2023-02-14T15:29:22;2.60;99.90
38568;DHT22;24338;48.280;10.970;2023-02-14T15:31:51;2.60;99.90
38568;DHT22;24338;48.280;10.970;2023-02-14T15:34:29;2.60;99.90
38568;DHT22;24338;48.280;10.970;2023-02-14T15:36:57;2.60;99.90
38568;DHT22;24338;48.280;10.970;2023-02-14T15:39:35;2.50;99.90
38568;DHT22;24338;48.280;10.970;2023-02-14T15:42:04;2.50;99.90
38568;DHT22;24338;48.280;10.970;2023-02-14T15:44:31;2.40;99.90
38568;DHT22;24338;48.280;10.970;2023-02-14T15:47:02;2.20;99.90
38568;DHT22;24338;48.280;10.970;2023-02-14T15:49:35;2.10;99.90
38568;DHT22;24338;48.280;10.970;2023-02-14T15:52:04;2.00;99.90
38568;DHT22;24338;48.280;10.970;2023-02-14T15:54:34;2.00;99.90
38568;DHT22;24338;48.280;10.970;2023-02-14T15:57:03;1.90;99.90
38568;DHT22;24338;48.280;10.970;2023-02-14T15:59:33;1.90;99.90
38568;DHT22;24338;48.280;10.970;2023-02-14T16:02:03;1.90;99.90
38568;DHT22;24338;48.280;10.970;2023-02-14T16:04:40;1.90;99.90
38568;DHT22;24338;48.280;10.970;2023-02-14T16:07:25;1.90;99.90
38568;DHT22;24338;48.280;10.970;2023-02-14T16:10:13;1.90;99.90
38568;DHT22;24338;48.280;10.970;2023-02-14T16:13:05;1.80;99.90
38568;DHT22;24338;48.280;10.970;2023-02-14T16:15:36;1.70;99.90
38568;DHT22;24338;48.280;10.970;2023-02-14T16:18:16;1.50;99.90
38568;DHT22;24338;48.280;10.970;2023-02-14T16:20:44;1.50;99.90
38568;DHT22;24338;48.280;10.970;2023-02-14T16:25:50;1.40;99.90
38568;DHT22;24338;48.280;10.970;2023-02-14T16:28:18;1.40;99.90
38568;DHT22;24338;48.280;10.970;2023-02-14T16:30:47;1.30;99.90
38568;DHT22;24338;48.280;10.970;2023-02-14T16:33:20;1.30;99.90
38568;DHT22;24338;48.280;10.970;2023-02-14T16:35:48;1.30;99.90
38568;DHT22;24338;48.280;10.970;2023-02-14T16:38:17;1.20;99.90
38568;DHT22;24338;48.280;10.970;2023-02-14T16:40:47;1.20;99.90
38568;DHT22;24338;48.280;10.970;2023-02-14T16:43:16;1.10;99.90
38568;DHT22;24338;48.280;10.970;2023-02-14T16:45:44;1.00;99.90
38568;DHT22;24338;48.280;10.970;2023-02-14T16:48:11;0.90;99.90
38568;DHT22;24338;48.280;10.970;2023-02-14T16:50:39;0.90;99.90
38568;DHT22;24338;48.280;10.970;2023-02-14T16:53:26;0.90;99.90
38568;DHT22;24338;48.280;10.970;2023-02-14T16:55:55;0.90;99.90
38568;DHT22;24338;48.280;10.970;2023-02-14T16:58:27;0.90;99.90
38568;DHT22;24338;48.280;10.970;2023-02-14T17:00:56;0.90;99.90
38568;DHT22;24338;48.280;10.970;2023-02-14T17:03:24;0.90;99.90
38568;DHT22;24338;48.280;10.970;2023-02-14T17:05:51;0.90;99.90
38568;DHT22;24338;48.280;10.970;2023-02-14T17:08:18;0.90;99.90
38568;DHT22;24338;48.280;10.970;2023-02-14T17:10:46;0.80;99.90
38568;DHT22;24338;48.280;10.970;2023-02-14T17:13:17;0.80;99.90
38568;DHT22;24338;48.280;10.970;2023-02-14T17:15:45;0.80;99.90
38568;DHT22;24338;48.280;10.970;2023-02-14T17:18:13;0.80;99.90
38568;DHT22;24338;48.280;10.970;2023-02-14T17:20:41;0.70;99.90
38568;DHT22;24338;48.280;10.970;2023-02-14T17:23:08;0.60;99.90
38568;DHT22;24338;48.280;10.970;2023-02-14T17:25:34;0.60;99.90
38568;DHT22;24338;48.280;10.970;2023-02-14T17:28:01;0.50;99.90
38568;DHT22;24338;48.280;10.970;2023-02-14T17:30:28;0.50;99.90
38568;DHT22;24338;48.280;10.970;2023-02-14T17:32:55;0.50;99.90
38568;DHT22;24338;48.280;10.970;2023-02-14T17:35:22;0.50;99.90
38568;DHT22;24338;48.280;10.970;2023-02-14T17:37:48;0.50;99.90
38568;DHT22;24338;48.280;10.970;2023-02-14T17:40:15;0.50;99.90
38568;DHT22;24338;48.280;10.970;2023-02-14T17:42:42;0.40;99.90
38568;DHT22;24338;48.280;10.970;2023-02-14T17:45:09;0.40;99.90
38568;DHT22;24338;48.280;10.970;2023-02-14T17:47:38;0.40;99.90
38568;DHT22;24338;48.280;10.970;2023-02-14T17:50:06;0.40;99.90
38568;DHT22;24338;48.280;10.970;2023-02-14T17:52:33;0.40;99.90
38568;DHT22;24338;48.280;10.970;2023-02-14T17:55:00;0.40;99.90
38568;DHT22;24338;48.280;10.970;2023-02-14T17:57:27;0.30;99.90
38568;DHT22;24338;48.280;10.970;2023-02-14T17:59:53;0.30;99.90
38568;DHT22;24338;48.280;10.970;2023-02-14T18:02:20;0.30;99.90
38568;DHT22;24338;48.280;10.970;2023-02-14T18:04:47;0.30;99.90
38568;DHT22;24338;48.280;10.970;2023-02-14T18:07:14;0.20;99.90
38568;DHT22;24338;48.280;10.970;2023-02-14T18:09:41;0.20;99.90
38568;DHT22;24338;48.280;10.970;2023-02-14T18:12:08;0.20;99.90
38568;DHT22;24338;48.280;10.970;2023-02-14T18:14:40;0.20;99.90